Time;durP1;ratioP1;P1;durP2;ratioP2;P2;SDS_P1;SDS_P2;PMS_P1;PMS_P2;Temp;Humidity;BMP_temperature;BMP_pressure;BME280_temperature;BME280_humidity;BME280_pressure;Samples;Min_cycle;Max_cycle;Signal;HPM_P1;HPM_P2
2022/01/20 00:04:17;;;;;;;4.73;3.27;;;2.10;96.30;;;;;;4950484;29;20577;-57
2022/01/20 00:07:31;;;;;;;4.43;3.20;;;2.10;96.50;;;;;;4937018;28;20440;-58
2022/01/20 00:23:16;;;;;;;4.00;3.07;;;2.20;96.20;;;;;;4950736;29;20611;-55
2022/01/20 00:26:05;;;;;;;5.10;3.80;;;2.20;96.30;;;;;;4948551;28;20421;-57
2022/01/20 00:28:45;;;;;;;6.47;2.93;;;2.20;96.50;;;;;;4959007;28;20453;-58
2022/01/20 00:33:49;;;;;;;3.37;3.00;;;2.30;96.30;;;;;;4936293;29;20454;-55
2022/01/20 00:38:44;;;;;;;3.07;2.50;;;2.30;96.40;;;;;;4953966;29;20436;-57
2022/01/20 00:41:15;;;;;;;4.30;2.70;;;2.20;96.10;;;;;;4951388;29;20433;-57
2022/01/20 00:43:44;;;;;;;4.23;2.80;;;2.20;96.40;;;;;;4953099;28;20521;-56
2022/01/20 00:46:11;;;;;;;3.00;2.63;;;2.20;96.50;;;;;;4962242;28;20477;-58
2022/01/20 00:48:36;;;;;;;3.07;2.77;;;2.20;96.70;;;;;;4953549;29;20453;-57
2022/01/20 00:51:03;;;;;;;5.30;3.40;;;2.20;96.70;;;;;;4953167;29;20425;-56
2022/01/20 00:53:28;;;;;;;2.80;2.40;;;2.20;97.00;;;;;;4953238;28;20205;-57
2022/01/20 00:55:55;;;;;;;4.00;3.13;;;2.20;97.40;;;;;;4964146;28;20433;-56
2022/01/20 00:58:21;;;;;;;3.07;2.80;;;2.10;98.00;;;;;;4952808;29;20201;-55
2022/01/20 01:00:47;;;;;;;3.13;2.60;;;2.10;98.70;;;;;;4953960;29;20898;-58
2022/01/20 01:03:13;;;;;;;2.60;2.40;;;2.10;99.30;;;;;;4946372;29;20446;-58
2022/01/20 01:05:51;;;;;;;4.30;2.70;;;2.10;99.90;;;;;;4953699;29;20257;-57
2022/01/20 01:08:17;;;;;;;3.53;2.87;;;2.10;99.90;;;;;;4952019;28;20194;-57
2022/01/20 01:10:45;;;;;;;2.90;2.70;;;2.00;99.90;;;;;;4953082;29;20477;-60
2022/01/20 01:13:14;;;;;;;3.13;2.83;;;2.00;99.90;;;;;;4958022;28;20182;-57
2022/01/20 01:15:44;;;;;;;3.30;2.90;;;2.00;99.90;;;;;;4951998;28;20464;-57
2022/01/20 01:23:35;;;;;;;4.37;3.27;;;2.00;99.90;;;;;;4953162;29;20514;-56
2022/01/20 01:26:01;;;;;;;4.10;3.30;;;2.00;99.90;;;;;;4935069;29;20436;-57
2022/01/20 01:28:30;;;;;;;3.73;2.97;;;2.00;99.90;;;;;;4952099;29;20560;-56
2022/01/20 01:33:22;;;;;;;3.93;3.20;;;2.10;99.90;;;;;;4962058;28;20471;-62
2022/01/20 01:35:55;;;;;;;4.07;2.73;;;2.10;99.90;;;;;;4937596;28;20931;-58
2022/01/20 01:38:35;;;;;;;3.23;2.77;;;2.10;99.90;;;;;;4944915;28;20465;-57
2022/01/20 01:41:04;;;;;;;4.13;3.00;;;2.10;99.90;;;;;;4951326;29;20433;-56
2022/01/20 01:43:32;;;;;;;4.20;3.40;;;2.10;99.90;;;;;;4953485;29;20456;-54
2022/01/20 01:46:00;;;;;;;3.73;3.17;;;2.10;99.90;;;;;;4946573;29;20855;-58
2022/01/20 01:48:26;;;;;;;5.57;3.10;;;2.00;99.90;;;;;;4950565;29;20488;-57
2022/01/20 01:50:52;;;;;;;3.50;3.17;;;2.00;99.90;;;;;;4964994;28;20430;-60
2022/01/20 01:53:18;;;;;;;5.70;3.43;;;2.00;99.90;;;;;;4976401;28;20645;-60
2022/01/20 01:55:44;;;;;;;3.87;3.10;;;2.00;99.90;;;;;;4974835;29;20445;-57
2022/01/20 01:58:09;;;;;;;5.47;3.13;;;2.10;99.90;;;;;;4981154;28;20241;-63
2022/01/20 02:00:35;;;;;;;4.10;3.30;;;2.00;99.90;;;;;;4976559;28;20221;-56
2022/01/20 02:03:01;;;;;;;3.77;3.20;;;2.00;99.90;;;;;;4975047;29;20250;-59
2022/01/20 02:05:28;;;;;;;2.77;2.57;;;2.00;99.90;;;;;;4969668;29;20185;-58
2022/01/20 02:18:50;;;;;;;6.60;4.20;;;2.00;99.90;;;;;;4984103;28;20555;-59
2022/01/20 02:21:16;;;;;;;4.57;3.20;;;2.00;99.90;;;;;;4973774;28;20597;-60
2022/01/20 02:23:42;;;;;;;4.70;4.00;;;1.90;99.90;;;;;;4954959;29;20520;-56
2022/01/20 02:26:08;;;;;;;4.30;3.50;;;1.90;99.90;;;;;;4954848;28;20432;-57
2022/01/20 02:28:34;;;;;;;5.17;3.67;;;1.90;99.90;;;;;;4948758;28;20475;-56
2022/01/20 02:31:00;;;;;;;5.80;4.17;;;1.90;99.90;;;;;;4956525;28;20444;-57
2022/01/20 02:33:27;;;;;;;5.00;3.87;;;1.80;99.90;;;;;;4968425;29;20466;-59
2022/01/20 02:35:56;;;;;;;5.90;4.10;;;1.80;99.90;;;;;;4967036;28;20178;-58
2022/01/20 02:46:21;;;;;;;4.30;3.70;;;1.70;99.90;;;;;;4948383;28;20480;-57
2022/01/20 02:48:47;;;;;;;4.90;3.90;;;1.70;99.90;;;;;;4947027;28;20652;-55
2022/01/20 02:51:13;;;;;;;7.07;4.10;;;1.60;99.90;;;;;;4944154;28;20185;-59
2022/01/20 02:53:38;;;;;;;8.47;4.87;;;1.60;99.90;;;;;;4946676;28;20201;-56
2022/01/20 02:56:04;;;;;;;6.27;4.13;;;1.60;99.90;;;;;;4945757;28;20284;-57
2022/01/20 02:58:30;;;;;;;5.80;4.23;;;1.60;99.90;;;;;;4945998;28;20445;-55
2022/01/20 03:00:56;;;;;;;7.03;4.17;;;1.60;99.90;;;;;;4946058;29;20811;-57
2022/01/20 03:03:22;;;;;;;5.60;3.93;;;1.60;99.90;;;;;;4944601;28;20217;-55
2022/01/20 03:05:47;;;;;;;6.13;4.10;;;1.60;99.90;;;;;;4945327;29;20468;-58
2022/01/20 03:08:13;;;;;;;6.07;4.83;;;1.50;99.90;;;;;;4944864;28;20307;-56
2022/01/20 03:10:39;;;;;;;5.13;3.90;;;1.50;99.90;;;;;;4945272;28;20323;-57
2022/01/20 03:15:39;;;;;;;4.80;4.03;;;1.50;99.90;;;;;;5001672;28;20211;-59
2022/01/20 03:18:05;;;;;;;5.23;3.47;;;1.50;99.90;;;;;;5003870;28;20426;-60
2022/01/20 03:20:32;;;;;;;6.77;4.23;;;1.50;99.90;;;;;;5005614;28;20414;-59
2022/01/20 03:22:58;;;;;;;4.87;4.10;;;1.50;99.90;;;;;;5006061;28;20409;-62
2022/01/20 03:25:24;;;;;;;6.20;4.00;;;1.50;99.90;;;;;;5002625;28;20441;-59
2022/01/20 03:27:50;;;;;;;5.60;4.57;;;1.50;99.90;;;;;;5006526;28;20959;-59
2022/01/20 03:30:15;;;;;;;5.23;4.27;;;1.50;99.90;;;;;;5004831;28;20510;-59
2022/01/20 03:32:41;;;;;;;4.80;4.20;;;1.50;99.90;;;;;;5007101;28;20680;-59
2022/01/20 03:35:07;;;;;;;5.63;4.37;;;1.50;99.90;;;;;;5007678;28;20265;-59
2022/01/20 03:37:34;;;;;;;6.53;4.67;;;1.50;99.90;;;;;;5006692;28;20727;-57
2022/01/20 03:39:59;;;;;;;5.27;3.77;;;1.50;99.90;;;;;;5019610;28;20509;-60
2022/01/20 03:42:25;;;;;;;3.90;3.50;;;1.50;99.90;;;;;;5006181;28;20636;-60
2022/01/20 03:44:52;;;;;;;6.30;3.73;;;1.50;99.90;;;;;;5005644;28;20912;-59
2022/01/20 03:47:18;;;;;;;5.40;4.00;;;1.50;99.90;;;;;;5007192;28;20605;-58
2022/01/20 03:52:36;;;;;;;5.93;3.77;;;1.50;99.90;;;;;;5001681;28;20430;-59
2022/01/20 03:55:03;;;;;;;4.77;3.70;;;1.50;99.90;;;;;;5006177;28;20847;-58
2022/01/20 03:57:28;;;;;;;4.03;3.53;;;1.50;99.90;;;;;;5005841;28;20175;-59
2022/01/20 03:59:54;;;;;;;8.33;5.07;;;1.50;99.90;;;;;;5006484;28;20433;-59
2022/01/20 04:02:20;;;;;;;9.30;5.90;;;1.50;99.90;;;;;;5008678;28;20534;-59
2022/01/20 04:04:45;;;;;;;5.50;4.03;;;1.50;99.90;;;;;;5006061;28;20209;-60
2022/01/20 04:07:11;;;;;;;4.27;3.33;;;1.50;99.90;;;;;;5006155;28;20676;-60
2022/01/20 04:09:36;;;;;;;4.37;3.43;;;1.50;99.90;;;;;;5003991;28;20560;-60
2022/01/20 04:12:02;;;;;;;7.17;3.93;;;1.50;99.90;;;;;;5006527;28;20185;-60
2022/01/20 04:14:31;;;;;;;6.00;4.17;;;1.50;99.90;;;;;;5006766;28;20372;-60
2022/01/20 04:19:24;;;;;;;8.73;4.20;;;1.50;99.90;;;;;;5007339;28;20425;-59
2022/01/20 04:21:50;;;;;;;4.80;3.40;;;1.50;99.90;;;;;;5006677;28;20633;-59
2022/01/20 04:24:16;;;;;;;5.50;3.70;;;1.60;99.90;;;;;;5006327;28;20442;-59
2022/01/20 04:26:43;;;;;;;5.80;3.80;;;1.60;99.90;;;;;;5005284;28;20446;-60
2022/01/20 04:29:11;;;;;;;9.83;7.03;;;1.50;99.90;;;;;;5006183;28;20418;-60
2022/01/20 04:31:39;;;;;;;7.43;4.57;;;1.60;99.90;;;;;;5006893;28;20415;-60
2022/01/20 04:34:06;;;;;;;6.23;4.13;;;1.60;99.90;;;;;;5006185;28;20842;-60
2022/01/20 04:36:36;;;;;;;4.50;3.70;;;1.60;99.90;;;;;;5006161;28;20437;-59
2022/01/20 04:39:06;;;;;;;5.70;4.20;;;1.60;99.90;;;;;;5007376;28;20425;-60
2022/01/20 04:41:32;;;;;;;7.07;3.93;;;1.60;99.90;;;;;;5007082;28;20445;-60
2022/01/20 04:43:59;;;;;;;6.97;4.53;;;1.60;99.90;;;;;;5005712;28;20604;-60
2022/01/20 04:46:35;;;;;;;5.93;4.30;;;1.60;99.90;;;;;;5007006;28;20185;-61
2022/01/20 04:59:29;;;;;;;6.00;4.00;;;1.50;99.90;;;;;;5014694;28;20445;-58
2022/01/20 05:01:55;;;;;;;4.70;3.70;;;1.50;99.90;;;;;;5003213;28;20442;-59
2022/01/20 05:04:23;;;;;;;6.10;3.97;;;1.50;99.90;;;;;;5005650;28;20205;-60
2022/01/20 05:06:49;;;;;;;4.17;3.70;;;1.50;99.90;;;;;;5002413;28;20199;-60
2022/01/20 05:09:19;;;;;;;5.07;4.00;;;1.50;99.90;;;;;;5004578;28;20430;-60
2022/01/20 05:11:50;;;;;;;4.57;3.43;;;1.50;99.90;;;;;;5007402;28;20425;-59
2022/01/20 05:14:16;;;;;;;4.63;3.23;;;1.50;99.90;;;;;;5005276;28;20502;-60
2022/01/20 05:16:42;;;;;;;5.00;3.73;;;1.50;99.90;;;;;;5004629;28;21176;-59
2022/01/20 05:19:07;;;;;;;3.30;3.00;;;1.50;99.90;;;;;;5014788;28;20541;-59
2022/01/20 05:21:33;;;;;;;5.13;3.80;;;1.50;99.90;;;;;;5000140;28;20183;-60
2022/01/20 05:23:59;;;;;;;4.83;3.83;;;1.60;99.90;;;;;;5009260;28;20203;-59
2022/01/20 05:26:24;;;;;;;3.70;3.00;;;1.50;99.90;;;;;;5007210;28;20179;-60
2022/01/20 05:28:50;;;;;;;5.00;3.03;;;1.50;99.90;;;;;;4998848;28;20202;-59
2022/01/20 05:31:16;;;;;;;3.30;3.00;;;1.50;99.90;;;;;;5005531;28;20180;-61
2022/01/20 05:33:41;;;;;;;5.07;3.57;;;1.50;99.90;;;;;;5010595;28;20227;-60
2022/01/20 05:36:07;;;;;;;8.63;3.40;;;1.50;99.90;;;;;;5008167;28;20248;-61
2022/01/20 05:38:33;;;;;;;3.53;3.23;;;1.50;99.90;;;;;;5001398;28;20203;-60
2022/01/20 05:40:58;;;;;;;5.57;3.40;;;1.50;99.90;;;;;;5002269;28;20192;-58
2022/01/20 05:43:24;;;;;;;4.00;3.27;;;1.60;99.90;;;;;;5005669;28;20182;-61
2022/01/20 05:45:50;;;;;;;3.43;3.13;;;1.50;99.90;;;;;;5009835;28;20238;-60
2022/01/20 05:48:17;;;;;;;4.60;3.43;;;1.60;99.90;;;;;;5003785;28;20432;-60
2022/01/20 05:50:44;;;;;;;4.17;3.60;;;1.60;99.90;;;;;;5010859;28;20187;-60
2022/01/20 05:53:10;;;;;;;3.90;3.50;;;1.60;99.90;;;;;;5012862;28;20448;-60
2022/01/20 05:55:36;;;;;;;7.00;3.50;;;1.60;99.90;;;;;;5002120;28;20571;-61
2022/01/20 05:58:06;;;;;;;3.87;3.47;;;1.60;99.90;;;;;;5007521;28;20445;-58
2022/01/20 06:00:35;;;;;;;4.40;3.50;;;1.60;99.90;;;;;;5009498;28;20426;-60
2022/01/20 06:05:45;;;;;;;5.10;3.40;;;1.60;99.90;;;;;;5005637;28;21150;-60
2022/01/20 06:08:11;;;;;;;5.47;3.17;;;1.60;99.90;;;;;;5011584;28;20487;-60
2022/01/20 06:10:37;;;;;;;5.80;3.20;;;1.60;99.90;;;;;;5008169;28;20202;-61
2022/01/20 06:13:04;;;;;;;4.43;3.40;;;1.60;99.90;;;;;;5003349;28;20268;-59
2022/01/20 06:15:30;;;;;;;3.40;3.07;;;1.60;99.90;;;;;;5011283;28;20469;-60
2022/01/20 06:17:56;;;;;;;3.50;2.90;;;1.50;99.90;;;;;;5012141;28;20434;-60
2022/01/20 06:20:22;;;;;;;3.00;2.70;;;1.50;99.90;;;;;;5003775;28;20938;-60
2022/01/20 06:22:48;;;;;;;4.03;3.00;;;1.50;99.90;;;;;;5017937;28;20200;-61
2022/01/20 06:25:14;;;;;;;3.33;2.73;;;1.50;99.90;;;;;;5013549;28;20449;-60
2022/01/20 06:27:39;;;;;;;5.13;2.70;;;1.60;99.90;;;;;;5006526;28;20259;-60
2022/01/20 06:30:06;;;;;;;4.10;3.10;;;1.50;99.90;;;;;;5011504;28;20550;-60
2022/01/20 06:32:33;;;;;;;4.63;3.10;;;1.60;99.90;;;;;;5016484;28;20239;-61
2022/01/20 06:34:59;;;;;;;4.47;3.50;;;1.60;99.90;;;;;;5005420;28;20462;-60
2022/01/20 06:37:25;;;;;;;3.97;3.00;;;1.60;99.90;;;;;;5009614;28;20418;-60
2022/01/20 06:39:50;;;;;;;3.50;2.90;;;1.60;99.90;;;;;;5013629;28;20412;-59
2022/01/20 06:42:16;;;;;;;3.17;2.87;;;1.60;99.90;;;;;;5012061;28;20209;-60
2022/01/20 06:44:42;;;;;;;3.77;3.47;;;1.60;99.90;;;;;;5023032;28;20201;-59
2022/01/20 06:47:08;;;;;;;4.17;3.30;;;1.60;99.90;;;;;;5018887;28;20176;-58
2022/01/20 06:49:34;;;;;;;9.23;2.87;;;1.60;99.90;;;;;;5013332;28;20519;-61
2022/01/20 06:52:00;;;;;;;4.67;3.20;;;1.60;99.90;;;;;;4998769;28;20562;-60
2022/01/20 06:54:26;;;;;;;5.67;2.83;;;1.60;99.90;;;;;;5013475;28;20962;-60
2022/01/20 06:56:51;;;;;;;6.97;3.50;;;1.60;99.90;;;;;;5016501;28;20269;-60
2022/01/20 06:59:18;;;;;;;4.13;2.70;;;1.60;99.90;;;;;;5010771;28;20257;-60
2022/01/20 07:01:46;;;;;;;3.30;2.97;;;1.60;99.90;;;;;;5009347;28;20524;-61
2022/01/20 07:04:13;;;;;;;3.20;2.83;;;1.60;99.90;;;;;;5010865;28;20524;-60
2022/01/20 07:06:39;;;;;;;3.13;2.83;;;1.60;99.90;;;;;;5017558;28;20504;-59
2022/01/20 07:09:07;;;;;;;4.60;2.70;;;1.60;99.90;;;;;;5011225;28;21014;-60
2022/01/20 07:11:34;;;;;;;4.37;3.03;;;1.70;99.90;;;;;;5006560;28;20469;-60
2022/01/20 07:13:59;;;;;;;3.47;2.93;;;1.60;99.90;;;;;;5008112;28;20463;-60
2022/01/20 07:16:25;;;;;;;3.43;3.13;;;1.60;99.90;;;;;;5009031;28;20428;-60
2022/01/20 07:18:51;;;;;;;4.00;3.27;;;1.60;99.90;;;;;;5010338;28;20415;-60
2022/01/20 07:21:18;;;;;;;4.43;3.70;;;1.60;99.90;;;;;;5010003;28;20178;-60
2022/01/20 07:23:43;;;;;;;5.83;4.20;;;1.60;99.90;;;;;;5011281;28;20512;-59
2022/01/20 07:26:09;;;;;;;4.23;3.00;;;1.70;99.90;;;;;;5025001;28;20407;-61
2022/01/20 07:28:35;;;;;;;6.30;3.67;;;1.70;99.90;;;;;;5009894;28;20187;-60
2022/01/20 07:31:01;;;;;;;4.10;3.37;;;1.70;99.90;;;;;;5004173;28;20849;-60
2022/01/20 07:33:27;;;;;;;4.77;3.50;;;1.70;99.90;;;;;;5017008;28;20428;-60
2022/01/20 07:35:53;;;;;;;5.57;3.80;;;1.70;99.90;;;;;;5010619;28;20192;-60
2022/01/20 07:38:18;;;;;;;6.80;4.23;;;1.70;99.90;;;;;;5005472;28;20180;-58
2022/01/20 07:40:44;;;;;;;4.73;3.40;;;1.70;99.90;;;;;;5005699;28;21075;-61
2022/01/20 07:43:10;;;;;;;6.63;3.80;;;1.70;99.90;;;;;;5006076;28;20177;-61
2022/01/20 07:45:36;;;;;;;5.10;3.37;;;1.70;99.90;;;;;;5010040;28;20196;-61
2022/01/20 07:48:02;;;;;;;5.87;3.60;;;1.70;99.90;;;;;;5021873;28;20182;-59
2022/01/20 07:50:27;;;;;;;6.13;3.87;;;1.70;99.90;;;;;;5007525;28;20190;-61
2022/01/20 07:52:53;;;;;;;5.53;4.03;;;1.70;99.90;;;;;;5006316;28;20460;-60
2022/01/20 07:55:19;;;;;;;5.07;3.07;;;1.70;99.90;;;;;;5001812;28;20244;-60
2022/01/20 07:57:45;;;;;;;4.17;3.07;;;1.80;99.90;;;;;;5009991;28;20237;-60
2022/01/20 08:00:11;;;;;;;4.77;2.93;;;1.80;99.90;;;;;;5007354;28;20423;-61
2022/01/20 08:02:37;;;;;;;4.77;3.33;;;1.80;99.90;;;;;;5001086;28;20180;-58
2022/01/20 08:05:03;;;;;;;2.97;2.53;;;1.80;99.90;;;;;;5007055;28;21033;-60
2022/01/20 08:07:28;;;;;;;3.80;3.03;;;1.80;99.90;;;;;;5007286;28;20175;-60
2022/01/20 08:09:57;;;;;;;4.10;3.53;;;1.80;99.90;;;;;;5014243;28;20475;-60
2022/01/20 08:12:25;;;;;;;4.30;3.80;;;1.90;99.90;;;;;;5007171;28;20204;-60
2022/01/20 08:14:51;;;;;;;5.80;3.60;;;2.00;99.90;;;;;;5007636;28;20883;-60
2022/01/20 08:17:17;;;;;;;7.60;4.90;;;2.10;99.90;;;;;;5011118;28;20450;-58
2022/01/20 08:19:42;;;;;;;4.90;3.37;;;2.20;99.90;;;;;;5018421;28;20480;-58
2022/01/20 08:22:08;;;;;;;8.50;2.67;;;2.30;99.90;;;;;;5014371;28;20673;-61
2022/01/20 08:24:34;;;;;;;2.90;2.57;;;2.30;99.90;;;;;;5008867;28;20250;-60
2022/01/20 08:27:00;;;;;;;3.97;3.07;;;2.30;99.90;;;;;;5009262;28;20266;-60
2022/01/20 08:29:25;;;;;;;6.83;2.70;;;2.30;99.90;;;;;;5004576;28;20204;-60
2022/01/20 08:31:51;;;;;;;2.43;2.27;;;2.30;99.90;;;;;;5002559;28;20873;-60
2022/01/20 08:34:17;;;;;;;1.80;1.70;;;2.30;99.90;;;;;;5004585;28;20718;-60
2022/01/20 08:36:44;;;;;;;2.53;1.97;;;2.30;99.90;;;;;;5008807;28;20167;-59
2022/01/20 08:41:54;;;;;;;2.07;1.90;;;2.30;99.90;;;;;;5007208;28;20867;-60
2022/01/20 08:44:20;;;;;;;1.70;1.60;;;2.30;99.90;;;;;;5007001;28;20594;-60
2022/01/20 08:46:47;;;;;;;2.73;2.47;;;2.30;99.90;;;;;;5010748;28;20671;-60
2022/01/20 08:49:13;;;;;;;2.40;1.80;;;2.30;99.90;;;;;;5014074;28;20204;-60
2022/01/20 08:51:41;;;;;;;3.93;2.97;;;2.30;99.90;;;;;;5007064;28;20438;-61
2022/01/20 08:54:07;;;;;;;3.40;2.40;;;2.40;99.90;;;;;;5009012;28;20470;-59
2022/01/20 08:56:36;;;;;;;2.40;2.20;;;2.40;99.90;;;;;;5000323;28;20438;-60
2022/01/20 08:59:06;;;;;;;2.43;2.23;;;2.40;99.90;;;;;;5002581;28;20214;-60
2022/01/20 09:01:33;;;;;;;3.00;2.50;;;2.50;99.90;;;;;;5011590;28;20455;-60
2022/01/20 09:03:59;;;;;;;3.23;2.70;;;2.50;99.90;;;;;;5012259;28;20443;-60
2022/01/20 09:06:25;;;;;;;2.97;2.77;;;2.50;99.90;;;;;;5002477;28;20434;-61
2022/01/20 09:08:51;;;;;;;2.40;2.20;;;2.60;99.90;;;;;;5004775;28;20622;-60
2022/01/20 09:11:22;;;;;;;3.30;2.37;;;2.50;99.90;;;;;;5010333;28;20430;-60
2022/01/20 09:16:35;;;;;;;2.10;2.00;;;2.50;99.90;;;;;;5013139;28;20438;-59
2022/01/20 09:19:01;;;;;;;2.50;2.30;;;2.50;99.90;;;;;;5036084;23;20398;-59
2022/01/20 09:21:28;;;;;;;2.93;2.63;;;2.40;99.90;;;;;;5023944;28;20415;-58
2022/01/20 09:23:54;;;;;;;2.93;2.30;;;2.40;99.90;;;;;;5024958;28;20554;-56
2022/01/20 09:26:19;;;;;;;3.43;2.70;;;2.50;99.90;;;;;;4998560;28;20435;-55
2022/01/20 09:28:45;;;;;;;3.43;2.40;;;2.50;99.90;;;;;;5009244;28;20165;-57
2022/01/20 09:31:11;;;;;;;3.23;2.50;;;2.50;99.90;;;;;;5011582;28;20227;-55
2022/01/20 09:33:39;;;;;;;2.60;2.40;;;2.60;99.90;;;;;;5008732;28;20203;-55
2022/01/20 09:36:10;;;;;;;3.17;2.87;;;2.60;99.90;;;;;;5009131;28;20423;-56
2022/01/20 09:38:36;;;;;;;5.00;3.10;;;2.50;99.90;;;;;;5010948;28;20571;-58
2022/01/20 09:41:04;;;;;;;2.87;2.57;;;2.50;99.90;;;;;;5005104;28;20480;-57
2022/01/20 09:43:30;;;;;;;3.80;2.93;;;2.50;99.90;;;;;;5012377;28;20425;-56
2022/01/20 09:45:56;;;;;;;3.70;2.73;;;2.60;99.90;;;;;;5010491;28;20444;-56
2022/01/20 09:48:23;;;;;;;2.50;2.30;;;2.60;99.90;;;;;;5009055;28;20431;-55
2022/01/20 09:50:50;;;;;;;3.40;2.50;;;2.70;99.90;;;;;;5008706;28;20724;-56
2022/01/20 09:53:16;;;;;;;2.40;2.20;;;2.70;97.80;;;;;;5011839;28;20748;-53
2022/01/20 09:55:42;;;;;;;6.03;2.63;;;2.80;97.40;;;;;;5011306;28;20949;-53
2022/01/20 09:58:09;;;;;;;2.40;2.20;;;2.80;98.00;;;;;;5009567;28;20446;-55
2022/01/20 10:00:36;;;;;;;5.47;2.50;;;2.80;98.00;;;;;;5010964;28;20453;-56
2022/01/20 10:03:09;;;;;;;4.33;2.67;;;2.80;98.90;;;;;;5009377;28;20497;-57
2022/01/20 10:05:41;;;;;;;2.70;2.50;;;2.80;97.20;;;;;;5010749;28;20450;-57
2022/01/20 10:08:14;;;;;;;4.37;2.67;;;2.70;93.80;;;;;;5009201;28;20424;-56
2022/01/20 10:11:00;;;;;;;6.30;2.63;;;2.70;93.80;;;;;;5009195;28;20990;-55
2022/01/20 10:13:29;;;;;;;4.63;2.30;;;2.60;95.20;;;;;;5008346;28;20439;-54
2022/01/20 10:16:03;;;;;;;4.47;2.50;;;2.70;94.80;;;;;;5009100;28;20920;-55
2022/01/20 10:18:30;;;;;;;9.27;2.77;;;2.70;93.20;;;;;;5007322;28;20450;-56
2022/01/20 10:21:02;;;;;;;2.93;2.37;;;2.60;93.40;;;;;;5010583;28;20470;-56
2022/01/20 10:23:54;;;;;;;6.40;3.00;;;2.70;94.10;;;;;;5011282;28;20500;-56
2022/01/20 10:26:24;;;;;;;7.03;3.50;;;2.70;94.50;;;;;;5008871;28;20434;-55
2022/01/20 10:28:57;;;;;;;6.30;3.13;;;2.80;93.60;;;;;;5009556;28;20434;-56
2022/01/20 10:31:35;;;;;;;3.37;3.07;;;2.80;92.70;;;;;;5009716;28;20426;-55
2022/01/20 10:34:07;;;;;;;6.33;3.03;;;2.90;92.70;;;;;;5003747;28;20807;-54
2022/01/20 10:36:39;;;;;;;8.33;3.13;;;3.10;93.80;;;;;;5002355;28;20434;-56
2022/01/20 10:39:06;;;;;;;9.40;3.63;;;3.30;95.20;;;;;;5006378;28;20470;-56
2022/01/20 10:41:37;;;;;;;9.90;3.37;;;3.50;93.40;;;;;;5006183;28;21070;-57
2022/01/20 10:44:05;;;;;;;6.40;3.07;;;3.50;89.70;;;;;;5002268;28;20474;-57
2022/01/20 10:46:42;;;;;;;5.07;2.73;;;3.50;90.30;;;;;;5014186;28;20445;-56
2022/01/20 10:49:08;;;;;;;3.00;2.70;;;3.50;90.50;;;;;;5009567;28;20447;-56
2022/01/20 10:51:33;;;;;;;5.87;2.77;;;3.60;90.20;;;;;;5010478;28;20434;-57
2022/01/20 10:53:59;;;;;;;11.17;2.80;;;3.70;87.90;;;;;;5010215;28;20188;-56
2022/01/20 10:56:25;;;;;;;3.50;2.50;;;3.70;81.60;;;;;;4999389;28;20657;-58
2022/01/20 10:58:52;;;;;;;6.13;2.20;;;3.70;80.50;;;;;;5009735;28;20182;-53
2022/01/20 11:01:18;;;;;;;5.63;2.40;;;3.60;76.80;;;;;;5009326;28;20184;-55
2022/01/20 11:03:44;;;;;;;4.63;2.27;;;3.50;75.00;;;;;;5009191;28;20954;-56
2022/01/20 11:06:09;;;;;;;4.23;2.67;;;3.50;73.80;;;;;;5009762;28;20199;-55
2022/01/20 11:08:41;;;;;;;8.23;2.17;;;3.40;75.00;;;;;;5009805;28;20446;-54
2022/01/20 11:11:07;;;;;;;5.60;2.60;;;3.40;74.60;;;;;;5006643;28;20199;-56
2022/01/20 11:13:32;;;;;;;3.87;3.17;;;3.40;76.30;;;;;;5005052;28;20545;-56
2022/01/20 11:15:58;;;;;;;5.57;3.23;;;3.40;76.80;;;;;;5008886;28;20446;-58
2022/01/20 11:18:28;;;;;;;6.40;2.77;;;3.40;76.60;;;;;;5009114;28;20214;-56
2022/01/20 11:20:56;;;;;;;6.63;2.63;;;3.50;75.40;;;;;;5009443;28;20232;-55
2022/01/20 11:23:21;;;;;;;7.23;3.10;;;3.50;74.10;;;;;;5004304;28;20435;-55
2022/01/20 11:25:47;;;;;;;5.90;2.00;;;3.60;74.10;;;;;;5010198;28;20418;-52
2022/01/20 11:28:21;;;;;;;4.83;2.10;;;3.60;73.10;;;;;;5007959;28;20187;-55
2022/01/20 11:30:58;;;;;;;5.77;2.73;;;3.60;71.00;;;;;;5007384;28;20197;-55
2022/01/20 11:33:38;;;;;;;5.80;2.20;;;3.60;72.60;;;;;;5008682;28;20510;-56
2022/01/20 11:36:06;;;;;;;5.23;2.83;;;3.60;74.50;;;;;;5007851;28;20422;-56
2022/01/20 11:38:47;;;;;;;8.07;2.80;;;3.60;74.10;;;;;;5005949;28;20431;-56
2022/01/20 11:41:14;;;;;;;6.93;2.60;;;3.60;73.50;;;;;;5007216;28;20429;-56
2022/01/20 11:43:41;;;;;;;3.80;2.60;;;3.60;73.70;;;;;;5007705;28;20497;-56
2022/01/20 11:46:17;;;;;;;12.80;3.30;;;3.60;74.20;;;;;;5008985;28;20435;-55
2022/01/20 11:49:03;;;;;;;3.53;2.37;;;3.70;72.70;;;;;;5003053;28;20605;-53
2022/01/20 11:51:47;;;;;;;5.97;2.43;;;3.70;72.20;;;;;;5005044;28;20507;-55
2022/01/20 11:54:17;;;;;;;7.77;2.70;;;3.80;70.80;;;;;;5008333;28;20465;-53
2022/01/20 11:56:44;;;;;;;6.03;3.20;;;3.90;69.90;;;;;;5001127;28;20445;-54
2022/01/20 11:59:12;;;;;;;6.57;2.30;;;4.00;68.20;;;;;;5007094;28;20521;-56
2022/01/20 12:01:52;;;;;;;5.60;2.50;;;4.00;67.00;;;;;;5009185;28;20453;-53
2022/01/20 12:04:29;;;;;;;6.63;3.07;;;4.00;66.70;;;;;;5001916;28;20439;-55
2022/01/20 12:06:55;;;;;;;4.67;2.47;;;4.10;66.90;;;;;;5009606;28;20438;-54
2022/01/20 12:09:29;;;;;;;4.80;2.50;;;4.00;66.40;;;;;;5007898;28;20795;-55
2022/01/20 12:11:55;;;;;;;4.80;2.37;;;4.00;68.10;;;;;;5002529;28;20184;-54
2022/01/20 12:14:35;;;;;;;4.10;2.20;;;4.00;68.00;;;;;;5008432;28;20558;-56
2022/01/20 12:17:14;;;;;;;7.40;2.10;;;4.00;68.00;;;;;;5006796;28;20689;-56
2022/01/20 12:19:52;;;;;;;4.70;2.33;;;3.90;68.90;;;;;;5008479;28;20478;-55
2022/01/20 12:22:18;;;;;;;8.30;2.70;;;3.90;69.60;;;;;;5008683;28;20416;-56
2022/01/20 12:24:54;;;;;;;2.93;1.97;;;4.00;69.10;;;;;;5009181;28;20438;-56
2022/01/20 12:27:22;;;;;;;4.80;2.27;;;4.00;68.50;;;;;;5009039;28;20191;-53
2022/01/20 12:29:48;;;;;;;10.73;2.53;;;4.00;68.00;;;;;;5007995;28;20533;-56
2022/01/20 12:32:19;;;;;;;3.60;2.03;;;4.00;66.60;;;;;;5014108;28;20925;-56
2022/01/20 12:35:00;;;;;;;4.27;2.90;;;4.00;66.00;;;;;;4995193;28;20199;-54
2022/01/20 12:37:34;;;;;;;6.37;1.97;;;4.00;66.90;;;;;;5004755;28;20826;-55
2022/01/20 12:39:59;;;;;;;4.07;1.97;;;4.00;67.10;;;;;;5015701;28;20819;-56
2022/01/20 12:42:33;;;;;;;2.60;1.90;;;4.00;66.70;;;;;;5014539;28;20427;-56
2022/01/20 12:47:47;;;;;;;7.30;1.83;;;4.10;67.60;;;;;;4993730;28;20423;-56
2022/01/20 12:50:13;;;;;;;3.33;2.13;;;4.30;67.10;;;;;;5032892;28;20514;-60
2022/01/20 12:52:49;;;;;;;3.57;1.97;;;4.40;65.40;;;;;;5033301;28;20160;-57
2022/01/20 12:55:17;;;;;;;4.93;2.20;;;4.40;64.70;;;;;;5036770;28;20202;-59
2022/01/20 12:57:43;;;;;;;4.00;2.73;;;4.50;64.30;;;;;;5035107;28;20436;-56
2022/01/20 13:00:10;;;;;;;2.50;1.90;;;4.60;64.10;;;;;;5036006;28;20439;-57
2022/01/20 13:02:35;;;;;;;5.37;1.90;;;4.70;62.80;;;;;;5035389;28;20439;-58
2022/01/20 13:05:04;;;;;;;5.30;2.10;;;4.80;64.00;;;;;;5030841;28;20956;-56
2022/01/20 13:07:34;;;;;;;6.20;2.33;;;4.80;64.00;;;;;;5015754;28;20223;-56
2022/01/20 13:10:03;;;;;;;5.50;2.13;;;4.70;62.20;;;;;;5014301;28;20516;-54
2022/01/20 13:12:39;;;;;;;3.30;1.63;;;4.60;62.80;;;;;;5015036;28;20511;-53
2022/01/20 13:15:26;;;;;;;3.07;2.03;;;4.60;63.50;;;;;;5014013;28;20954;-54
2022/01/20 13:18:12;;;;;;;4.50;1.70;;;4.50;62.60;;;;;;5013624;28;20425;-56
2022/01/20 13:20:41;;;;;;;9.30;2.47;;;4.40;63.20;;;;;;5005055;28;20459;-54
2022/01/20 13:23:54;;;;;;;2.40;2.13;;;4.40;63.60;;;;;;5015585;28;20911;-56
2022/01/20 13:26:07;;;;;;;1.90;1.70;;;4.50;63.20;;;;;;5015812;28;20414;-54
2022/01/20 13:28:33;;;;;;;7.80;2.60;;;4.40;63.60;;;;;;5015669;28;20545;-56
2022/01/20 13:31:15;;;;;;;5.13;2.30;;;4.50;65.00;;;;;;5014180;28;20427;-56
2022/01/20 13:33:41;;;;;;;7.13;2.40;;;4.60;65.00;;;;;;5011475;28;20183;-55
2022/01/20 13:36:07;;;;;;;3.80;2.30;;;4.60;65.60;;;;;;5014785;28;20561;-56
2022/01/20 13:38:40;;;;;;;8.80;2.90;;;4.50;65.70;;;;;;5013867;28;20184;-58
2022/01/20 13:41:12;;;;;;;7.80;2.60;;;4.50;65.90;;;;;;5015494;28;20649;-56
2022/01/20 13:46:30;;;;;;;5.97;2.73;;;4.60;65.20;;;;;;4993614;28;20436;-55
2022/01/20 13:49:06;;;;;;;10.33;3.13;;;4.50;64.40;;;;;;4995477;28;20825;-56
2022/01/20 13:51:32;;;;;;;4.00;2.17;;;4.40;64.70;;;;;;5010706;28;20428;-56
2022/01/20 13:53:58;;;;;;;4.40;2.30;;;4.20;64.60;;;;;;5011209;28;20456;-57
2022/01/20 13:56:23;;;;;;;4.63;2.40;;;4.10;64.00;;;;;;5008057;28;20177;-55
2022/01/20 13:58:50;;;;;;;7.40;2.43;;;4.00;63.80;;;;;;5011007;28;20224;-56
2022/01/20 14:01:15;;;;;;;5.93;1.80;;;3.90;64.80;;;;;;5011609;28;20172;-57
2022/01/20 14:03:42;;;;;;;12.67;2.20;;;3.80;65.80;;;;;;5011261;28;20430;-57
2022/01/20 14:06:08;;;;;;;5.67;2.00;;;3.70;66.20;;;;;;5011159;28;20187;-58
2022/01/20 14:08:36;;;;;;;8.03;2.60;;;3.70;67.20;;;;;;5008786;28;20466;-57
2022/01/20 14:11:03;;;;;;;8.70;2.27;;;3.60;68.10;;;;;;5008418;28;20865;-58
2022/01/20 14:13:29;;;;;;;7.40;2.23;;;3.50;67.70;;;;;;5008015;28;20422;-58
2022/01/20 14:15:55;;;;;;;4.30;2.00;;;3.50;68.30;;;;;;5011329;28;20435;-58
2022/01/20 14:18:23;;;;;;;4.20;1.93;;;3.40;69.30;;;;;;5011715;28;20179;-56
2022/01/20 14:20:49;;;;;;;2.87;2.00;;;3.40;71.60;;;;;;5011610;28;20532;-57
2022/01/20 14:23:15;;;;;;;5.70;3.47;;;3.30;74.00;;;;;;5010408;28;20526;-57